createdAt,value
2019-01-06T00:01:33.385Z,-6.61
2019-01-06T00:04:27.585Z,-6.77
2019-01-06T00:07:14.637Z,-6.68
2019-01-06T00:10:01.825Z,-6.60
2019-01-06T00:13:05.513Z,-6.65
2019-01-06T00:15:52.317Z,-6.82
2019-01-06T00:18:43.760Z,-6.68
2019-01-06T00:21:44.300Z,-6.55
2019-01-06T00:24:33.326Z,-6.62
2019-01-06T00:27:27.435Z,-6.58
2019-01-06T00:30:14.717Z,-6.73
2019-01-06T00:33:15.543Z,-6.82
2019-01-06T00:36:06.549Z,-6.70
2019-01-06T00:38:44.150Z,-6.69
2019-01-06T00:41:31.181Z,-6.68
2019-01-06T00:44:19.409Z,-6.69
2019-01-06T00:47:11.273Z,-6.53
2019-01-06T00:49:59.483Z,-6.40
2019-01-06T00:53:06.325Z,-6.28
2019-01-06T00:55:53.695Z,-6.13
2019-01-06T00:58:41.953Z,-6.15
2019-01-06T01:01:30.205Z,-6.25
2019-01-06T01:04:24.378Z,-6.18
2019-01-06T01:07:12.634Z,-6.27
2019-01-06T01:09:59.579Z,-6.31
2019-01-06T01:12:56.727Z,-6.23
2019-01-06T01:15:47.755Z,-6.15
2019-01-06T01:18:42.961Z,-5.97
2019-01-06T01:21:40.339Z,-5.97
2019-01-06T01:24:27.556Z,-5.86
2019-01-06T01:27:28.168Z,-5.79
2019-01-06T01:30:19.386Z,-5.85
2019-01-06T01:33:10.585Z,-5.95
2019-01-06T01:36:04.968Z,-5.99
2019-01-06T01:38:59.461Z,-8.78
2019-01-06T01:41:47.758Z,-5.84
2019-01-06T01:44:51.743Z,-5.95
2019-01-06T01:47:38.921Z,-6.04
2019-01-06T01:50:27.175Z,-5.83
2019-01-06T01:53:14.361Z,-3.88
2019-01-06T01:56:02.652Z,-3.65
2019-01-06T01:58:53.967Z,-4.69
2019-01-06T02:02:00.497Z,-5.37
2019-01-06T02:04:47.397Z,-5.94
2019-01-06T02:07:34.258Z,-6.00
2019-01-06T02:10:22.506Z,-6.06
2019-01-06T02:13:09.380Z,-6.04
2019-01-06T02:15:59.128Z,-5.98
2019-01-06T02:18:53.418Z,-6.06
2019-01-06T02:21:40.567Z,-6.07
2019-01-06T02:24:35.026Z,-6.02
2019-01-06T02:27:29.107Z,-6.23
2019-01-06T02:30:16.008Z,-6.25
2019-01-06T02:33:16.552Z,-6.08
2019-01-06T02:36:14.129Z,-6.00
2019-01-06T02:39:01.045Z,-5.94
2019-01-06T02:41:43.787Z,-5.94
2019-01-06T02:44:43.734Z,-5.97
2019-01-06T02:47:47.157Z,-5.96
2019-01-06T02:50:34.028Z,-5.97
2019-01-06T02:53:25.388Z,-5.90
2019-01-06T02:56:22.676Z,-5.83
2019-01-06T02:59:10.925Z,-5.86
2019-01-06T03:01:58.053Z,-5.88
2019-01-06T03:04:55.161Z,-5.84
2019-01-06T03:07:42.336Z,-5.83
2019-01-06T03:10:30.591Z,-5.90
2019-01-06T03:13:17.760Z,-5.85
2019-01-06T03:16:04.925Z,-5.65
2019-01-06T03:18:56.310Z,-5.63
2019-01-06T03:21:43.336Z,-5.58
2019-01-06T03:24:37.622Z,-5.61
2019-01-06T03:27:34.930Z,-5.51
2019-01-06T03:30:26.538Z,-5.57
2019-01-06T03:33:13.382Z,-5.63
2019-01-06T03:36:01.686Z,-5.64
2019-01-06T03:38:51.682Z,-5.66
2019-01-06T03:41:52.311Z,-5.55
2019-01-06T03:44:46.414Z,-5.53
2019-01-06T03:47:52.933Z,-5.52
2019-01-06T03:50:39.773Z,-5.52
2019-01-06T03:53:43.175Z,-5.43
2019-01-06T03:56:30.333Z,-5.55
2019-01-06T03:59:24.714Z,-5.61
2019-01-06T04:02:13.005Z,-5.57
2019-01-06T04:04:53.548Z,-5.70
2019-01-06T04:07:53.907Z,-5.68
2019-01-06T04:10:41.194Z,-5.43
2019-01-06T04:13:28.338Z,-5.50
2019-01-06T04:16:32.082Z,-5.45
2019-01-06T04:19:20.333Z,-5.47
2019-01-06T04:22:07.782Z,-5.61
2019-01-06T04:24:59.072Z,-5.64
2019-01-06T04:27:50.411Z,-5.55
2019-01-06T04:30:50.865Z,-5.62
2019-01-06T04:33:48.788Z,-5.68
2019-01-06T04:36:35.619Z,-5.62
2019-01-06T04:39:43.934Z,-5.61
2019-01-06T04:42:40.242Z,-5.69
2019-01-06T04:45:28.484Z,-5.69
2019-01-06T04:48:22.518Z,-5.62
2019-01-06T04:51:16.845Z,-5.54
2019-01-06T04:54:08.107Z,-5.48
2019-01-06T04:57:08.712Z,-5.61
2019-01-06T04:59:56.034Z,-5.40
2019-01-06T05:02:59.957Z,-5.21
2019-01-06T05:05:47.214Z,-5.25
2019-01-06T05:08:34.223Z,-5.25
2019-01-06T05:11:40.805Z,-5.20
2019-01-06T05:14:28.549Z,-5.21
2019-01-06T05:17:35.331Z,-5.24
2019-01-06T05:20:22.433Z,-5.23
2019-01-06T05:23:12.972Z,-5.30
2019-01-06T05:26:19.403Z,-5.25
2019-01-06T05:29:16.898Z,-5.14
2019-01-06T05:32:08.942Z,-5.12
2019-01-06T05:34:57.213Z,-5.11
2019-01-06T05:37:44.415Z,-5.06
2019-01-06T05:40:35.696Z,-5.06
2019-01-06T05:43:35.794Z,-5.08
2019-01-06T05:46:26.831Z,-5.08
2019-01-06T05:49:21.272Z,-5.00
2019-01-06T05:52:21.580Z,-4.86
2019-01-06T05:55:08.726Z,-4.86
2019-01-06T05:57:51.860Z,-4.81
2019-01-06T06:00:47.044Z,-4.86
2019-01-06T06:03:47.452Z,-4.71
2019-01-06T06:06:50.851Z,-4.70
2019-01-06T06:09:47.566Z,-4.61
2019-01-06T06:12:35.796Z,-4.65
2019-01-06T06:15:36.400Z,-4.68
2019-01-06T06:18:43.080Z,-4.73
2019-01-06T06:21:33.945Z,-4.76
2019-01-06T06:24:23.268Z,-4.55
2019-01-06T06:27:10.458Z,-4.56
2019-01-06T06:30:06.305Z,-4.49
2019-01-06T06:32:53.467Z,-4.42
2019-01-06T06:35:50.990Z,-4.32
2019-01-06T06:38:38.284Z,-4.18
2019-01-06T06:41:30.802Z,-4.05
2019-01-06T06:44:25.141Z,-3.88
2019-01-06T06:47:12.121Z,-3.72
2019-01-06T06:50:18.622Z,-3.71
2019-01-06T06:53:16.277Z,-3.75
2019-01-06T06:56:10.718Z,-3.66
2019-01-06T06:58:58.981Z,-3.59
2019-01-06T07:02:36.510Z,-3.42
2019-01-06T07:05:34.413Z,-3.26
2019-01-06T07:08:21.341Z,-3.06
2019-01-06T07:11:15.525Z,-2.90
2019-01-06T07:14:03.673Z,-2.85
2019-01-06T07:17:28.165Z,-2.73
2019-01-06T07:20:16.390Z,-2.59
2019-01-06T07:23:11.029Z,-2.51
2019-01-06T07:25:58.411Z,-2.47
2019-01-06T07:28:46.657Z,-2.37
2019-01-06T07:31:37.747Z,-2.29
2019-01-06T07:34:24.257Z,-2.21
2019-01-06T07:37:11.545Z,-2.14
2019-01-06T07:40:08.884Z,-2.04
2019-01-06T07:42:57.084Z,-1.79
2019-01-06T07:45:50.953Z,-1.82
2019-01-06T07:48:38.801Z,-1.68
2019-01-06T07:51:27.055Z,-1.61
2019-01-06T07:54:27.469Z,-1.66
2019-01-06T07:57:14.654Z,-1.62
2019-01-06T08:00:01.595Z,-1.56
2019-01-06T08:02:58.731Z,-1.54
2019-01-06T08:05:53.046Z,-1.51
2019-01-06T08:08:56.749Z,-1.51
2019-01-06T08:11:48.687Z,-1.46
2019-01-06T08:14:55.118Z,-1.55
2019-01-06T08:17:42.032Z,-1.59
2019-01-06T08:20:29.097Z,-1.56
2019-01-06T08:23:21.939Z,-1.57
2019-01-06T08:26:19.357Z,-1.58
2019-01-06T08:29:22.992Z,-1.54
2019-01-06T08:32:12.492Z,-1.58
2019-01-06T08:34:59.742Z,-1.56
2019-01-06T08:37:51.018Z,-1.56
2019-01-06T08:40:38.003Z,-1.56
2019-01-06T08:43:23.516Z,-1.55
2019-01-06T08:46:10.602Z,-1.50
2019-01-06T08:49:07.982Z,-1.46
2019-01-06T08:52:07.359Z,-1.42
2019-01-06T08:54:50.081Z,-1.35
2019-01-06T08:57:38.335Z,-1.27
2019-01-06T09:00:33.434Z,-1.31
2019-01-06T09:03:21.695Z,-1.33
2019-01-06T09:06:18.982Z,-1.11
2019-01-06T09:09:07.247Z,-1.07
2019-01-06T09:11:54.369Z,-1.10
2019-01-06T09:14:41.954Z,-1.04
2019-01-06T09:17:43.165Z,-0.92
2019-01-06T09:20:32.395Z,-0.93
2019-01-06T09:23:26.603Z,-0.97
2019-01-06T09:26:13.529Z,-0.97
2019-01-06T09:29:14.147Z,-1.02
2019-01-06T09:32:02.542Z,-1.02
2019-01-06T09:34:49.634Z,-1.00
2019-01-06T09:37:40.793Z,-1.10
2019-01-06T09:40:27.890Z,-1.15
2019-01-06T09:43:21.921Z,-1.20
2019-01-06T09:46:21.424Z,-1.25
2019-01-06T09:49:24.909Z,-1.25
2019-01-06T09:52:12.022Z,-1.33
2019-01-06T09:55:06.099Z,-1.37
2019-01-06T09:57:54.546Z,-1.40
2019-01-06T10:00:41.885Z,-1.35
2019-01-06T10:03:29.252Z,-1.39
2019-01-06T10:06:27.024Z,-1.36
2019-01-06T10:09:21.365Z,-1.40
2019-01-06T10:12:18.839Z,-1.32
2019-01-06T10:15:05.836Z,-1.38
2019-01-06T10:17:53.443Z,-1.32
2019-01-06T10:21:00.233Z,-1.26
2019-01-06T10:23:48.533Z,-1.24
2019-01-06T10:26:36.971Z,-1.24
2019-01-06T10:29:25.269Z,-1.20
2019-01-06T10:32:31.749Z,-1.17
2019-01-06T10:35:32.177Z,-1.05
2019-01-06T10:38:24.249Z,-1.04
2019-01-06T10:41:11.078Z,-0.93
2019-01-06T10:44:03.447Z,-0.90
2019-01-06T10:46:54.776Z,-0.84
2019-01-06T10:49:42.094Z,-0.76
2019-01-06T10:52:49.948Z,-0.74
2019-01-06T10:55:36.610Z,-0.71
2019-01-06T10:58:23.263Z,-0.62
2019-01-06T11:01:17.525Z,-0.61
2019-01-06T11:04:04.730Z,-0.55
2019-01-06T11:06:51.940Z,-0.56
2019-01-06T11:09:52.602Z,-0.53
2019-01-06T11:12:39.033Z,-0.51
2019-01-06T11:15:27.646Z,-0.50
2019-01-06T11:18:15.913Z,-0.45
2019-01-06T11:21:04.250Z,-0.45
2019-01-06T11:23:51.370Z,-0.41
2019-01-06T11:26:39.678Z,-0.37
2019-01-06T11:29:32.804Z,-0.37
2019-01-06T11:32:36.468Z,-0.33
2019-01-06T11:35:36.990Z,-0.19
2019-01-06T11:38:24.420Z,-0.25
2019-01-06T11:41:18.937Z,-0.27
2019-01-06T11:44:05.903Z,-0.25
2019-01-06T11:47:06.226Z,-0.28
2019-01-06T11:50:03.634Z,-0.28
2019-01-06T11:52:52.967Z,-0.28
2019-01-06T11:55:47.183Z,-0.28
2019-01-06T11:58:38.963Z,-0.25
2019-01-06T12:01:25.927Z,-0.26
2019-01-06T12:04:14.178Z,-0.26
2019-01-06T12:07:01.559Z,-0.20
2019-01-06T12:09:53.052Z,-0.22
2019-01-06T12:12:56.531Z,-0.20
2019-01-06T12:15:50.782Z,-0.09
2019-01-06T12:18:51.574Z,0.09
2019-01-06T12:21:42.983Z,0.12
2019-01-06T12:24:54.342Z,0.04
2019-01-06T12:27:42.194Z,0.10
2019-01-06T12:30:30.507Z,-0.01
2019-01-06T12:33:17.336Z,-0.02
2019-01-06T12:36:24.321Z,-0.11
2019-01-06T12:39:28.004Z,-0.12
2019-01-06T12:42:16.302Z,-0.30
2019-01-06T12:45:07.580Z,-0.35
2019-01-06T12:47:54.759Z,-0.53
2019-01-06T12:50:52.177Z,-0.58
2019-01-06T12:53:40.563Z,-0.42
2019-01-06T12:56:31.197Z,-0.46
2019-01-06T12:59:18.365Z,-0.56
2019-01-06T13:02:06.644Z,-0.59
2019-01-06T13:04:57.828Z,-0.53
2019-01-06T13:07:46.300Z,-0.45
2019-01-06T13:10:33.425Z,-0.36
2019-01-06T13:13:20.427Z,-0.17
2019-01-06T13:16:07.332Z,-0.06
2019-01-06T13:19:10.715Z,-0.02
2019-01-06T13:22:07.784Z,0.03
2019-01-06T13:24:56.752Z,0.00
2019-01-06T13:27:57.179Z,0.03
2019-01-06T13:30:38.645Z,0.08
2019-01-06T13:33:36.428Z,0.44
2019-01-06T13:36:26.296Z,0.63
2019-01-06T13:39:20.388Z,0.33
2019-01-06T13:42:18.148Z,0.46
2019-01-06T13:45:22.269Z,0.43
2019-01-06T13:48:22.886Z,0.42
2019-01-06T13:51:29.588Z,0.34
2019-01-06T13:54:16.460Z,0.37
2019-01-06T13:57:03.768Z,0.39
2019-01-06T13:59:50.986Z,0.39
2019-01-06T14:02:37.863Z,0.51
2019-01-06T14:05:25.147Z,0.62
2019-01-06T14:08:15.453Z,0.61
2019-01-06T14:11:09.700Z,0.51
2019-01-06T14:14:06.991Z,0.53
2019-01-06T14:16:55.359Z,0.45
2019-01-06T14:19:42.434Z,0.35
2019-01-06T14:22:27.917Z,0.32
2019-01-06T14:25:25.196Z,0.26
2019-01-06T14:28:31.518Z,0.23
2019-01-06T14:31:18.425Z,0.34
2019-01-06T14:34:18.886Z,0.32
2019-01-06T14:37:10.240Z,0.23
2019-01-06T14:39:57.411Z,0.49
2019-01-06T14:42:44.296Z,0.43
2019-01-06T14:45:38.821Z,0.46
2019-01-06T14:48:31.152Z,0.48
2019-01-06T14:51:22.465Z,0.74
2019-01-06T14:54:09.632Z,0.74
2019-01-06T14:56:56.581Z,0.80
2019-01-06T14:59:52.012Z,0.97
2019-01-06T15:02:46.388Z,0.68
2019-01-06T15:05:41.669Z,0.36
2019-01-06T15:08:29.899Z,0.31
2019-01-06T15:11:18.175Z,0.17
2019-01-06T15:14:18.621Z,0.14
2019-01-06T15:17:05.554Z,0.04
2019-01-06T15:20:03.100Z,-0.08
2019-01-06T15:22:48.950Z,-0.24
2019-01-06T15:25:49.381Z,-0.29
2019-01-06T15:28:46.807Z,-0.35
2019-01-06T15:31:38.092Z,-0.44
2019-01-06T15:34:25.049Z,-0.52
2019-01-06T15:37:19.097Z,-0.65
2019-01-06T15:40:16.995Z,-0.67
2019-01-06T15:43:23.843Z,-0.77
2019-01-06T15:46:11.200Z,-0.78
2019-01-06T15:48:59.460Z,-0.85
2019-01-06T15:51:46.588Z,-0.85
2019-01-06T15:54:40.940Z,-0.88
2019-01-06T15:57:29.187Z,-0.92
2019-01-06T16:00:17.029Z,-0.94
2019-01-06T16:03:08.154Z,-0.94
2019-01-06T16:05:56.421Z,-0.96
2019-01-06T16:08:54.663Z,-0.96
2019-01-06T16:11:40.444Z,-1.00
2019-01-06T16:14:28.703Z,-1.04
2019-01-06T16:17:35.481Z,-1.07
2019-01-06T16:20:22.300Z,-1.08
2019-01-06T16:23:17.089Z,-1.04
2019-01-06T16:26:11.490Z,-1.05
2019-01-06T16:28:55.647Z,-1.07
2019-01-06T16:31:52.151Z,-1.12
2019-01-06T16:34:40.820Z,-1.16
2019-01-06T16:37:29.111Z,-1.21
2019-01-06T16:40:26.478Z,-1.25
2019-01-06T16:43:24.804Z,-1.29
2019-01-06T16:46:27.030Z,-1.36
2019-01-06T16:49:13.231Z,-1.34
2019-01-06T16:52:01.438Z,-1.40
2019-01-06T16:54:48.600Z,-1.43
2019-01-06T16:57:39.225Z,-1.46
2019-01-06T17:00:42.699Z,-1.54
2019-01-06T17:03:34.089Z,-1.58
2019-01-06T17:06:21.367Z,-1.61
2019-01-06T17:09:18.630Z,-1.66
2019-01-06T17:12:10.011Z,-1.70
2019-01-06T17:14:57.624Z,-1.72
2019-01-06T17:17:58.204Z,-1.74
2019-01-06T17:20:55.528Z,-1.81
2019-01-06T17:23:55.789Z,-1.78
2019-01-06T17:26:47.099Z,-1.76
2019-01-06T17:29:31.749Z,-1.72
2019-01-06T17:32:18.971Z,-1.74
2019-01-06T17:35:06.182Z,-1.71
2019-01-06T17:37:57.421Z,-1.69
2019-01-06T17:40:44.700Z,-1.64
2019-01-06T17:43:32.362Z,-1.59
2019-01-06T17:46:19.313Z,-1.55
2019-01-06T17:49:34.297Z,-1.58
2019-01-06T17:52:21.269Z,-1.56
2019-01-06T17:55:18.951Z,-1.56
2019-01-06T17:58:11.824Z,-1.55
2019-01-06T18:01:15.500Z,-1.58
2019-01-06T18:04:03.799Z,-1.58
2019-01-06T18:06:51.844Z,-1.53
2019-01-06T18:09:40.830Z,-1.60
2019-01-06T18:12:27.931Z,-1.56
2019-01-06T18:15:14.867Z,-1.53
2019-01-06T18:18:12.600Z,-1.54
2019-01-06T18:21:09.963Z,-1.56
2019-01-06T18:24:03.268Z,-1.61
2019-01-06T18:27:00.852Z,-1.58
2019-01-06T18:29:46.343Z,-1.55
2019-01-06T18:32:35.007Z,-1.63
2019-01-06T18:35:32.445Z,-1.68
2019-01-06T18:38:27.956Z,-1.66
2019-01-06T18:41:12.780Z,-1.69
2019-01-06T18:44:13.533Z,-1.74
2019-01-06T18:47:02.770Z,-1.75
2019-01-06T18:49:53.902Z,-1.80
2019-01-06T18:52:41.999Z,-1.76
2019-01-06T18:55:30.262Z,-1.77
2019-01-06T18:58:34.014Z,-1.76
2019-01-06T19:01:21.218Z,-1.78
2019-01-06T19:04:08.500Z,-1.76
2019-01-06T19:07:02.838Z,-1.78
2019-01-06T19:09:47.522Z,-1.79
2019-01-06T19:12:38.528Z,-1.76
2019-01-06T19:15:21.066Z,-1.73
2019-01-06T19:18:08.388Z,-1.76
2019-01-06T19:20:55.441Z,-1.75
2019-01-06T19:23:42.372Z,-1.76
2019-01-06T19:26:41.006Z,-1.73
2019-01-06T19:29:35.065Z,-1.73
2019-01-06T19:32:32.539Z,-1.73
2019-01-06T19:35:19.498Z,-1.73
2019-01-06T19:38:10.015Z,-1.76
2019-01-06T19:40:57.353Z,-1.75
2019-01-06T19:43:42.880Z,-1.71
2019-01-06T19:46:34.484Z,-1.71
2019-01-06T19:49:28.766Z,-1.72
2019-01-06T19:52:27.402Z,-1.73
2019-01-06T19:55:31.158Z,-1.72
2019-01-06T19:58:21.776Z,-1.73
2019-01-06T20:01:25.030Z,-1.69
2019-01-06T20:04:19.353Z,-1.70
2019-01-06T20:07:08.125Z,-1.74
2019-01-06T20:10:00.757Z,-1.71
2019-01-06T20:12:58.049Z,-1.72
2019-01-06T20:15:45.260Z,-1.66
2019-01-06T20:18:48.906Z,-1.66
2019-01-06T20:21:34.945Z,-1.63
2019-01-06T20:24:23.256Z,-1.64
2019-01-06T20:27:16.133Z,-1.59
2019-01-06T20:30:09.122Z,-1.63
2019-01-06T20:33:04.374Z,-1.62
2019-01-06T20:35:58.454Z,-1.66
2019-01-06T20:38:55.980Z,-1.67
2019-01-06T20:41:46.956Z,-1.65
2019-01-06T20:44:34.351Z,-1.62
2019-01-06T20:47:37.955Z,-1.67
2019-01-06T20:50:35.525Z,-1.66
2019-01-06T20:53:38.878Z,-1.68
2019-01-06T20:56:42.950Z,-1.73
2019-01-06T20:59:33.747Z,-1.92
2019-01-06T21:02:34.041Z,-1.75
2019-01-06T21:05:25.121Z,-1.73
2019-01-06T21:08:26.790Z,-1.72
2019-01-06T21:11:09.143Z,-1.75
2019-01-06T21:13:56.293Z,-1.80
2019-01-06T21:16:43.486Z,-1.82
2019-01-06T21:19:37.751Z,-1.80
2019-01-06T21:22:29.066Z,-1.87
2019-01-06T21:25:16.480Z,-1.87
2019-01-06T21:28:02.403Z,-1.88
2019-01-06T21:30:59.821Z,-1.90
2019-01-06T21:33:49.262Z,-1.92
2019-01-06T21:36:56.219Z,-1.94
2019-01-06T21:39:42.970Z,-1.96
2019-01-06T21:42:26.349Z,-1.94
2019-01-06T21:45:08.321Z,-1.97
2019-01-06T21:47:56.563Z,-1.96
2019-01-06T21:50:43.772Z,-2.00
2019-01-06T21:53:24.602Z,-2.03
2019-01-06T21:56:22.223Z,-2.05
2019-01-06T21:59:09.227Z,-2.00
2019-01-06T22:01:51.321Z,-2.04
2019-01-06T22:04:48.647Z,-2.32
2019-01-06T22:07:36.887Z,-2.08
2019-01-06T22:10:24.215Z,-2.17
2019-01-06T22:13:30.994Z,-2.19
2019-01-06T22:16:18.052Z,-2.18
2019-01-06T22:19:06.357Z,-2.22
2019-01-06T22:22:13.021Z,-2.22
2019-01-06T22:25:13.330Z,-2.25
2019-01-06T22:28:05.209Z,-2.26
2019-01-06T22:30:59.469Z,-2.26
2019-01-06T22:33:53.865Z,-2.29
2019-01-06T22:36:40.746Z,-2.28
2019-01-06T22:39:38.021Z,-2.32
2019-01-06T22:42:29.368Z,-2.34
2019-01-06T22:45:14.372Z,-2.25
2019-01-06T22:48:18.158Z,-2.33
2019-01-06T22:51:20.708Z,-2.29
2019-01-06T22:54:20.982Z,-2.30
2019-01-06T22:57:08.030Z,-2.28
2019-01-06T22:59:55.054Z,-2.26
2019-01-06T23:02:42.281Z,-2.27
2019-01-06T23:05:32.727Z,-2.26
2019-01-06T23:08:33.446Z,-2.31
2019-01-06T23:11:27.600Z,-2.30
2019-01-06T23:14:27.896Z,-2.31
2019-01-06T23:17:24.647Z,-2.27
2019-01-06T23:20:07.534Z,-2.24
2019-01-06T23:23:14.187Z,-2.23
2019-01-06T23:26:02.146Z,-2.27
2019-01-06T23:28:43.881Z,-2.23
2019-01-06T23:31:41.477Z,-2.21
2019-01-06T23:34:32.727Z,-2.26
2019-01-06T23:37:18.815Z,-2.30
2019-01-06T23:40:22.911Z,-2.26
2019-01-06T23:43:13.923Z,-2.27
2019-01-06T23:46:02.178Z,-2.26
2019-01-06T23:48:49.396Z,-2.25
2019-01-06T23:51:55.915Z,-2.24
2019-01-06T23:54:56.215Z,-2.27
2019-01-06T23:57:56.617Z,-2.31
